Time;durP1;ratioP1;P1;durP2;ratioP2;P2;SDS_P1;SDS_P2;PMS_P1;PMS_P2;Temp;Humidity;BMP_temperature;BMP_pressure;BME280_temperature;BME280_humidity;BME280_pressure;Samples;Min_cycle;Max_cycle;Signal;HPM_P1;HPM_P2
2021/04/18 00:00:54;;;;;;;34.95;22.10;;;;;;;9.00;57.04;99948.84;4357074;32;33222;-90
2021/04/18 00:04:16;;;;;;;35.03;22.70;;;;;;;8.68;58.00;99940.78;4385915;32;35250;-90
2021/04/18 00:06:45;;;;;;;36.05;23.20;;;;;;;9.01;57.33;99944.53;4368851;32;33720;-89
2021/04/18 00:09:15;;;;;;;36.42;23.55;;;;;;;9.05;57.05;99946.28;4368689;32;33029;-89
2021/04/18 00:11:44;;;;;;;37.80;24.12;;;;;;;9.07;57.03;99941.97;4380587;32;33652;-89
2021/04/18 00:14:15;;;;;;;36.47;23.33;;;;;;;8.84;57.23;99940.03;4381718;32;33791;-89
2021/04/18 00:17:03;;;;;;;31.58;22.00;;;;;;;8.93;57.25;99944.47;4370901;32;33612;-89
2021/04/18 00:19:51;;;;;;;35.85;22.67;;;;;;;9.07;57.07;99944.56;4370601;32;32896;-89
2021/04/18 00:22:18;;;;;;;38.13;23.85;;;;;;;9.01;57.32;99940.19;4368745;32;33801;-88
2021/04/18 00:24:47;;;;;;;36.75;23.40;;;;;;;9.07;56.86;99942.84;4381329;32;33909;-89
2021/04/18 00:27:34;;;;;;;35.63;22.17;;;;;;;9.07;56.94;99944.56;4370790;32;33433;-89
2021/04/18 00:30:31;;;;;;;36.15;22.58;;;;;;;8.99;56.98;99948.81;4381202;32;32908;-89
2021/04/18 00:33:18;;;;;;;37.00;23.15;;;;;;;9.07;56.83;99941.97;4381334;32;33333;-90
2021/04/18 00:36:10;;;;;;;33.80;21.67;;;;;;;9.08;57.09;99941.13;4380932;32;34332;-89
2021/04/18 00:38:37;;;;;;;37.78;23.55;;;;;;;8.58;58.66;99944.12;4368911;32;33469;-89
2021/04/18 00:41:45;;;;;;;33.28;22.37;;;;;;;8.59;58.83;99942.41;4372961;32;32804;-89
2021/04/18 00:44:38;;;;;;;37.25;22.55;;;;;;;8.99;57.83;99946.22;4381356;32;33400;-90
2021/04/18 00:47:51;;;;;;;31.08;21.95;;;;;;;9.07;57.43;99945.44;4381156;32;33812;-89
2021/04/18 00:50:28;;;;;;;36.85;23.45;;;;;;;8.83;58.24;99940.03;4380609;32;34644;-90
2021/04/18 00:52:57;;;;;;;34.70;23.08;;;;;;;8.82;58.45;99936.56;4380875;32;33734;-89
2021/04/18 00:55:27;;;;;;;34.25;22.33;;;;;;;8.97;58.09;99934.97;4368593;32;33254;-89
2021/04/18 00:58:18;;;;;;;36.40;22.83;;;;;;;8.90;58.28;99935.78;4383643;32;34391;-89
2021/04/18 01:01:09;;;;;;;37.13;23.00;;;;;;;9.07;57.78;99923.81;4380889;32;33707;-90
2021/04/18 01:04:13;;;;;;;33.83;21.77;;;;;;;8.97;58.03;99927.19;4372516;32;32820;-89
2021/04/18 01:07:02;;;;;;;35.90;23.58;;;;;;;9.09;57.88;99922.09;4383238;32;33429;-90
2021/04/18 01:10:09;;;;;;;35.45;22.15;;;;;;;9.19;57.68;99918.72;4382340;32;35201;-90
2021/04/18 01:13:00;;;;;;;33.63;22.87;;;;;;;8.94;58.29;99916.81;4382475;32;35044;-90
2021/04/18 01:15:29;;;;;;;36.28;23.30;;;;;;;9.18;57.79;99922.16;4382471;32;32945;-89
2021/04/18 01:18:14;;;;;;;37.40;23.58;;;;;;;9.05;57.92;99915.16;4371946;32;33577;-90
2021/04/18 01:20:43;;;;;;;32.80;22.98;;;;;;;8.97;58.21;99909.91;4370351;32;33752;-90
2021/04/18 01:23:52;;;;;;;36.00;23.35;;;;;;;9.11;58.11;99916.06;4374324;32;34763;-90
2021/04/18 01:26:40;;;;;;;34.55;22.77;;;;;;;8.83;58.55;99904.59;4392652;32;33904;-90
2021/04/18 01:29:27;;;;;;;35.45;22.73;;;;;;;8.98;58.42;99913.38;4372332;32;34170;-90
2021/04/18 01:32:20;;;;;;;35.83;23.45;;;;;;;8.99;58.20;99912.50;4372255;32;34244;-89
2021/04/18 01:34:49;;;;;;;37.65;23.20;;;;;;;9.07;57.87;99903.06;4370394;32;34263;-90
2021/04/18 01:37:38;;;;;;;33.88;22.33;;;;;;;9.01;57.91;99913.41;4372626;32;32717;-90
2021/04/18 01:40:28;;;;;;;37.65;23.70;;;;;;;9.02;58.14;99900.44;4382163;32;33160;-89
2021/04/18 01:43:38;;;;;;;39.10;24.08;;;;;;;8.88;58.31;99903.78;4374400;32;34011;-89
2021/04/18 01:46:25;;;;;;;31.25;21.55;;;;;;;8.89;58.29;99902.94;4371939;32;33014;-90
2021/04/18 01:48:56;;;;;;;35.38;21.50;;;;;;;8.94;58.04;99906.44;4382249;32;32986;-90
2021/04/18 01:52:19;;;;;;;33.70;21.52;;;;;;;9.00;57.79;99901.28;4375903;32;33597;-90
2021/04/18 01:55:00;;;;;;;34.50;22.48;;;;;;;8.81;58.21;99910.63;4371211;32;33966;-90
2021/04/18 01:57:55;;;;;;;35.13;23.38;;;;;;;8.96;57.95;99905.59;4385085;32;33556;-89
2021/04/18 02:00:24;;;;;;;34.65;22.35;;;;;;;8.88;58.06;99908.97;4370320;32;33667;-89
2021/04/18 02:03:26;;;;;;;37.08;22.35;;;;;;;8.91;57.96;99909.00;4393742;32;33831;-89
2021/04/18 02:06:13;;;;;;;32.78;20.58;;;;;;;9.01;57.55;99909.06;4370569;32;33759;-89
2021/04/18 02:08:43;;;;;;;33.58;22.17;;;;;;;8.78;58.34;99908.87;4368973;32;33184;-89
2021/04/18 02:11:15;;;;;;;36.72;23.05;;;;;;;8.88;58.21;99909.84;4368940;32;32484;-89
2021/04/18 02:13:44;;;;;;;35.20;21.85;;;;;;;8.84;58.38;99911.50;4368472;32;33358;-88
2021/04/18 02:16:31;;;;;;;34.50;22.87;;;;;;;8.83;58.41;99914.09;4383351;32;33800;-88
2021/04/18 02:19:00;;;;;;;33.38;22.50;;;;;;;8.85;58.15;99913.28;4368712;32;33578;-88
2021/04/18 02:21:30;;;;;;;34.15;21.92;;;;;;;8.93;58.09;99909.87;4368837;32;32920;-88
2021/04/18 02:23:59;;;;;;;34.17;21.58;;;;;;;8.90;58.38;99907.25;4382101;32;33219;-89
2021/04/18 02:26:46;;;;;;;36.50;23.48;;;;;;;8.84;58.40;99906.34;4371619;32;33855;-89
2021/04/18 02:29:55;;;;;;;30.55;20.55;;;;;;;8.72;58.85;99906.22;4373660;32;34275;-88
2021/04/18 02:32:23;;;;;;;34.10;22.55;;;;;;;8.89;58.05;99905.53;4382085;32;32972;-89
2021/04/18 02:35:15;;;;;;;35.10;21.75;;;;;;;8.78;58.54;99906.28;4392211;32;33213;-89
2021/04/18 02:37:45;;;;;;;37.65;23.92;;;;;;;8.69;58.60;99901.03;4381804;32;34834;-89
2021/04/18 02:40:33;;;;;;;33.25;21.42;;;;;;;8.71;58.83;99898.44;4372065;32;33439;-89
2021/04/18 02:43:20;;;;;;;35.50;21.90;;;;;;;8.75;58.75;99901.06;4371740;32;32794;-89
2021/04/18 02:46:17;;;;;;;32.17;21.00;;;;;;;8.79;58.82;99897.62;4381913;32;34353;-90
2021/04/18 02:49:05;;;;;;;34.47;22.40;;;;;;;8.73;58.89;99902.78;4371703;32;34231;-89
2021/04/18 02:52:13;;;;;;;32.53;22.17;;;;;;;8.86;58.65;99890.81;4373736;32;33432;-89
2021/04/18 02:55:13;;;;;;;34.17;22.17;;;;;;;8.66;59.35;99895.81;4370499;32;34789;-89
2021/04/18 02:58:19;;;;;;;33.80;21.52;;;;;;;8.85;58.69;99900.31;4363692;32;32983;-91
2021/04/18 03:01:26;;;;;;;35.00;22.05;;;;;;;8.71;58.79;99894.13;4373799;32;33568;-89
2021/04/18 03:04:18;;;;;;;32.35;21.27;;;;;;;8.67;58.86;99897.56;4362487;32;33436;-89
2021/04/18 03:07:10;;;;;;;34.80;21.58;;;;;;;8.64;59.12;99894.94;4340987;32;33173;-89
2021/04/18 03:09:40;;;;;;;31.67;21.62;;;;;;;8.86;58.67;99890.81;4327103;32;33280;-89
2021/04/18 03:12:40;;;;;;;32.88;20.70;;;;;;;8.67;59.14;99889.78;4345511;32;34453;-89
2021/04/18 03:15:48;;;;;;;34.50;20.95;;;;;;;8.76;58.73;99883.78;4335064;32;33358;-89
2021/04/18 03:18:49;;;;;;;31.45;21.33;;;;;;;8.74;58.92;99883.78;4342403;32;35184;-89
2021/04/18 03:21:57;;;;;;;32.90;21.08;;;;;;;8.71;58.89;99873.38;4334794;32;33776;-89
2021/04/18 03:24:50;;;;;;;31.25;20.33;;;;;;;8.62;59.01;99886.28;4341891;32;34789;-89
2021/04/18 03:27:40;;;;;;;33.55;20.73;;;;;;;8.78;58.72;99880.34;4371492;32;34464;-89
2021/04/18 03:30:36;;;;;;;32.63;20.92;;;;;;;8.53;59.35;99883.59;4362816;32;33772;-91
2021/04/18 03:33:05;;;;;;;32.50;22.00;;;;;;;8.68;59.21;99883.72;4357410;32;34264;-89
2021/04/18 03:35:37;;;;;;;30.75;20.35;;;;;;;8.77;58.79;99880.34;4358143;32;34292;-89
2021/04/18 03:38:45;;;;;;;34.25;21.52;;;;;;;8.71;58.89;99875.97;4381746;32;34428;-88
2021/04/18 03:41:48;;;;;;;;;;;;;;;8.66;59.44;99885.44;4373302;32;32665;-89
2021/04/18 03:44:37;;;;;;;31.40;19.98;;;;;;;8.64;59.52;99884.56;4381224;32;33826;-88
2021/04/18 03:47:07;;;;;;;30.75;21.02;;;;;;;8.62;59.73;99883.69;4381258;32;33956;-88
2021/04/18 03:49:36;;;;;;;31.25;20.73;;;;;;;8.73;59.58;99876.84;4369561;32;33467;-89
2021/04/18 03:52:25;;;;;;;32.00;20.50;;;;;;;8.72;59.58;99885.47;4358563;32;32519;-88
2021/04/18 03:54:54;;;;;;;32.85;21.52;;;;;;;8.66;59.77;99880.25;4344531;32;33874;-89
2021/04/18 03:57:53;;;;;;;29.27;19.83;;;;;;;8.82;59.61;99891.59;4356930;32;33871;-89
2021/04/18 04:00:26;;;;;;;32.53;20.95;;;;;;;8.79;59.53;99887.25;4366972;32;34327;-89
2021/04/18 04:03:13;;;;;;;32.65;21.67;;;;;;;8.83;59.58;99889.06;4356151;32;32933;-88
2021/04/18 04:06:04;;;;;;;32.15;20.50;;;;;;;8.90;59.35;99886.50;4366097;32;33363;-89
2021/04/18 04:08:52;;;;;;;33.30;21.87;;;;;;;9.06;59.24;99885.75;4368177;32;34182;-89
2021/04/18 04:11:41;;;;;;;35.67;22.37;;;;;;;9.15;58.99;99891.84;4368782;32;32847;-89
2021/04/18 04:14:39;;;;;;;33.38;21.45;;;;;;;9.15;59.06;99891.03;4369671;32;33828;-89
2021/04/18 04:17:28;;;;;;;34.05;21.58;;;;;;;9.28;58.68;99888.50;4366374;32;33313;-89
2021/04/18 04:20:16;;;;;;;35.88;21.95;;;;;;;9.25;58.84;99888.47;4368599;32;34801;-89
2021/04/18 04:22:52;;;;;;;34.20;21.20;;;;;;;9.16;59.03;99887.53;4354828;32;34307;-89
2021/04/18 04:25:50;;;;;;;30.73;21.35;;;;;;;9.00;59.44;99885.72;4369167;32;33157;-89
2021/04/18 04:28:38;;;;;;;32.88;22.02;;;;;;;8.99;59.33;99894.34;4355687;32;34227;-89
2021/04/18 04:31:31;;;;;;;32.35;20.75;;;;;;;9.09;59.17;99890.97;4356336;32;33881;-89
2021/04/18 04:34:40;;;;;;;32.58;22.15;;;;;;;9.23;58.82;99887.59;4358249;32;33578;-91
2021/04/18 04:37:07;;;;;;;32.50;22.00;;;;;;;9.33;58.53;99879.03;4354108;32;33835;-88
2021/04/18 04:39:52;;;;;;;35.40;22.40;;;;;;;9.09;59.26;99888.38;4355336;32;34517;-90
2021/04/18 04:42:19;;;;;;;31.98;21.40;;;;;;;9.40;58.55;99887.72;4353682;32;34149;-89
2021/04/18 04:45:08;;;;;;;35.85;22.40;;;;;;;9.16;59.08;99892.75;4367829;32;33823;-89
2021/04/18 04:47:35;;;;;;;29.90;20.52;;;;;;;8.95;59.68;99897.78;4353465;32;34071;-89
2021/04/18 04:50:32;;;;;;;34.28;21.92;;;;;;;9.26;58.94;99885.03;4352865;32;34516;-90
2021/04/18 04:53:21;;;;;;;33.78;22.83;;;;;;;9.23;59.09;99889.31;4339616;32;34008;-89
2021/04/18 04:55:48;;;;;;;33.70;23.12;;;;;;;9.37;58.80;99892.88;4337583;32;33564;-89
2021/04/18 04:58:38;;;;;;;35.00;23.38;;;;;;;9.36;58.73;99881.66;4349489;32;33827;-89
2021/04/18 05:01:13;;;;;;;34.47;22.62;;;;;;;9.51;58.38;99892.09;4350618;32;33327;-89
2021/04/18 05:03:44;;;;;;;31.00;21.70;;;;;;;9.46;58.47;99890.34;4349627;32;33880;-89
2021/04/18 05:06:20;;;;;;;32.00;22.13;;;;;;;9.41;58.86;99890.31;4350760;32;33180;-89
2021/04/18 05:09:28;;;;;;;30.48;21.15;;;;;;;9.52;58.49;99892.97;4381412;32;33323;-89
2021/04/18 05:11:57;;;;;;;33.45;21.10;;;;;;;9.31;59.11;99893.72;4368324;32;34063;-90
2021/04/18 05:15:05;;;;;;;30.95;21.12;;;;;;;9.47;58.89;99890.34;4372274;32;34979;-91
2021/04/18 05:17:59;;;;;;;32.13;22.20;;;;;;;9.62;58.69;99892.16;4370052;32;33926;-90
2021/04/18 05:21:04;;;;;;;30.95;21.08;;;;;;;9.54;59.02;99894.72;4380287;32;33189;-89
2021/04/18 05:23:58;;;;;;;32.08;21.67;;;;;;;9.60;58.73;99896.50;4360475;32;34197;-89
2021/04/18 05:26:54;;;;;;;33.92;20.62;;;;;;;9.67;58.85;99902.56;4370623;32;33356;-89
2021/04/18 05:29:23;;;;;;;31.62;21.65;;;;;;;9.72;58.35;99893.09;4368041;32;32654;-89
2021/04/18 05:32:14;;;;;;;28.92;20.85;;;;;;;9.84;58.37;99895.72;4380432;32;33635;-88
2021/04/18 05:34:42;;;;;;;28.73;20.92;;;;;;;9.96;58.00;99895.78;4367747;32;35062;-89
2021/04/18 05:37:49;;;;;;;30.37;21.35;;;;;;;9.95;58.04;99900.09;4371906;32;34531;-89
2021/04/18 05:40:18;;;;;;;31.27;21.42;;;;;;;9.63;58.89;99903.44;4355911;32;33418;-90
2021/04/18 05:43:33;;;;;;;31.95;21.42;;;;;;;9.69;58.65;99901.72;4353326;32;34140;-89
2021/04/18 05:46:37;;;;;;;31.80;21.83;;;;;;;9.89;58.43;99894.87;4352970;32;33794;-89
2021/04/18 05:49:26;;;;;;;30.35;21.33;;;;;;;9.97;58.41;99895.78;4329384;32;33948;-90
2021/04/18 05:52:30;;;;;;;30.10;21.87;;;;;;;10.00;58.44;99895.81;4332375;32;33725;-90
2021/04/18 05:55:13;;;;;;;;;;;;;;;9.96;58.73;99896.63;4333798;33;33215;-90
2021/04/18 05:58:17;;;;;;;31.00;20.33;;;;;;;10.07;58.39;99899.28;4327655;33;35772;-90
2021/04/18 06:01:08;;;;;;;32.22;22.73;;;;;;;10.21;58.40;99897.62;4342346;32;33917;-91
2021/04/18 06:03:56;;;;;;;33.65;23.33;;;;;;;10.47;57.73;99905.47;4341146;32;33370;-91
2021/04/18 06:06:25;;;;;;;31.02;23.02;;;;;;;10.43;57.72;99902.03;4339310;32;33102;-92
2021/04/18 06:08:53;;;;;;;32.28;23.62;;;;;;;10.19;58.58;99899.34;4351674;32;34685;-90
2021/04/18 06:11:36;;;;;;;35.20;24.20;;;;;;;10.34;58.47;99901.97;4351378;32;34212;-90
2021/04/18 06:14:39;;;;;;;33.50;24.63;;;;;;;10.70;57.38;99893.34;4337942;33;33640;-90
2021/04/18 06:17:37;;;;;;;34.10;23.23;;;;;;;10.50;58.10;99893.38;4340862;33;33161;-91
2021/04/18 06:20:26;;;;;;;35.42;24.00;;;;;;;10.76;57.51;99888.19;4350019;33;33205;-91
2021/04/18 06:23:13;;;;;;;36.53;24.25;;;;;;;10.99;56.50;99891.63;4361608;32;33817;-86
2021/04/18 06:25:41;;;;;;;31.83;23.15;;;;;;;10.97;56.67;99889.91;4336803;33;33283;-90
2021/04/18 06:28:08;;;;;;;34.65;23.05;;;;;;;10.93;56.49;99902.06;4337506;33;32919;-89
2021/04/18 06:30:36;;;;;;;33.17;23.62;;;;;;;11.17;56.02;99899.44;4361618;32;33488;-90
2021/04/18 06:33:04;;;;;;;34.33;23.85;;;;;;;11.25;56.37;99895.09;4349325;33;34047;-89
2021/04/18 06:35:31;;;;;;;33.55;23.55;;;;;;;11.32;55.86;99891.59;4349227;33;33517;-90
2021/04/18 06:38:08;;;;;;;34.55;24.20;;;;;;;11.61;54.42;99890.66;4337836;33;33334;-89
2021/04/18 06:40:35;;;;;;;30.58;21.87;;;;;;;11.49;54.80;99895.03;4349115;32;34428;-89
2021/04/18 06:43:06;;;;;;;31.65;22.23;;;;;;;11.63;54.55;99896.72;4337062;33;34000;-90
2021/04/18 06:45:34;;;;;;;31.37;21.45;;;;;;;11.66;54.87;99894.13;4337322;33;34110;-89
2021/04/18 06:48:04;;;;;;;32.05;21.90;;;;;;;11.69;54.82;99889.81;4349380;32;32948;-90
2021/04/18 06:50:32;;;;;;;31.15;22.30;;;;;;;11.93;54.23;99896.69;4337210;32;33461;-89
2021/04/18 06:53:05;;;;;;;34.53;24.02;;;;;;;12.03;53.65;99893.13;4361783;32;34129;-91
2021/04/18 06:55:33;;;;;;;35.30;23.45;;;;;;;12.12;53.44;99893.97;4361214;32;33711;-91
2021/04/18 06:58:40;;;;;;;33.08;22.85;;;;;;;12.17;53.13;99893.97;4353343;32;33028;-91
2021/04/18 07:01:08;;;;;;;31.42;22.80;;;;;;;12.06;53.84;99895.72;4348883;32;33331;-90
2021/04/18 07:04:10;;;;;;;30.37;22.17;;;;;;;12.12;54.16;99898.34;4351021;32;33901;-90
2021/04/18 07:06:39;;;;;;;31.10;23.17;;;;;;;12.13;53.48;99895.72;4360580;32;33643;-90
2021/04/18 07:09:29;;;;;;;33.60;23.12;;;;;;;12.06;53.60;99895.72;4338493;33;32922;-91
2021/04/18 07:12:24;;;;;;;30.35;21.98;;;;;;;12.17;53.05;99886.16;4339286;32;33281;-91
2021/04/18 07:14:54;;;;;;;30.55;22.52;;;;;;;12.22;53.25;99889.56;4366554;32;33866;-90
2021/04/18 07:17:22;;;;;;;35.05;23.30;;;;;;;12.21;54.05;99893.06;4353602;32;34447;-91
2021/04/18 07:20:14;;;;;;;29.37;20.67;;;;;;;12.27;53.33;99890.41;4366489;32;32937;-90
2021/04/18 07:22:44;;;;;;;34.75;22.33;;;;;;;12.03;53.67;99888.78;4366910;32;33343;-89
2021/04/18 07:25:12;;;;;;;30.02;22.45;;;;;;;12.10;53.99;99887.00;4367009;32;33941;-90
2021/04/18 07:27:50;;;;;;;30.83;23.12;;;;;;;12.20;53.76;99892.19;4354574;32;33906;-90
2021/04/18 07:30:26;;;;;;;33.28;22.52;;;;;;;12.18;54.42;99882.62;4354534;32;32916;-91
2021/04/18 07:33:02;;;;;;;31.00;23.25;;;;;;;12.52;53.23;99889.41;4355035;32;34281;-90
2021/04/18 07:35:39;;;;;;;32.03;22.75;;;;;;;12.59;53.45;99891.09;4354026;32;34965;-89
2021/04/18 07:38:32;;;;;;;32.80;22.90;;;;;;;12.71;53.44;99885.78;4353706;32;33980;-89
2021/04/18 07:41:21;;;;;;;31.92;23.45;;;;;;;12.56;53.91;99887.63;4353162;32;34019;-90
2021/04/18 07:43:49;;;;;;;30.77;22.80;;;;;;;12.58;53.38;99878.91;4353932;32;33339;-91
2021/04/18 07:46:50;;;;;;;32.28;23.15;;;;;;;12.70;53.31;99876.22;4368514;32;34017;-91
2021/04/18 07:49:37;;;;;;;;;;;;;;;12.93;52.07;99880.41;4358075;32;33360;-90
2021/04/18 07:52:25;;;;;;;31.30;21.85;;;;;;;12.69;52.76;99873.63;4356725;32;33523;-91
2021/04/18 07:54:52;;;;;;;;;;;;;;;12.52;53.68;99884.19;4353893;32;33228;-90
2021/04/18 07:57:25;;;;;;;31.02;21.67;;;;;;;12.83;52.35;99877.88;4341960;32;34605;-91
2021/04/18 07:59:54;;;;;;;31.85;22.48;;;;;;;12.95;52.40;99882.13;4353769;32;33415;-90
2021/04/18 08:02:24;;;;;;;30.02;22.37;;;;;;;13.00;52.01;99882.06;4366141;32;32923;-91
2021/04/18 08:04:57;;;;;;;29.77;22.13;;;;;;;13.06;51.95;99884.66;4365994;32;33132;-91
2021/04/18 08:08:03;;;;;;;34.15;21.65;;;;;;;13.10;51.80;99889.00;4355314;32;35430;-91
2021/04/18 08:10:35;;;;;;;31.75;20.83;;;;;;;13.38;51.11;99880.00;4365277;32;33648;-91
2021/04/18 08:13:16;;;;;;;33.25;23.27;;;;;;;13.52;49.80;99881.59;4374464;32;32859;-91
2021/04/18 08:15:54;;;;;;;30.60;21.90;;;;;;;13.48;49.97;99877.25;4362872;32;34799;-91
2021/04/18 08:18:28;;;;;;;31.80;23.60;;;;;;;13.57;50.58;99878.94;4374825;32;34767;-91
2021/04/18 08:21:22;;;;;;;34.65;22.60;;;;;;;13.56;50.28;99887.63;4392737;32;33544;-91
2021/04/18 08:23:52;;;;;;;29.17;21.75;;;;;;;13.38;49.64;99880.84;4395937;32;33249;-90
2021/04/18 08:26:25;;;;;;;29.10;21.17;;;;;;;13.51;49.50;99885.06;4395701;32;33527;-92
2021/04/18 08:28:58;;;;;;;20.50;15.02;;;;;;;13.73;49.41;99888.31;4382648;32;34661;-88
2021/04/18 08:31:30;;;;;;;25.00;17.42;;;;;;;14.26;58.69;99888.50;4406249;32;34370;-87
2021/04/18 08:34:00;;;;;;;27.42;20.85;;;;;;;14.73;56.12;99890.47;4394135;32;33188;-88
2021/04/18 08:36:34;;;;;;;27.20;21.25;;;;;;;14.92;49.26;99885.81;4402115;32;162426;-87
2021/04/18 08:39:05;;;;;;;23.38;16.75;;;;;;;14.86;47.39;99878.03;4397143;32;34918;-96
2021/04/18 08:41:59;;;;;;;27.65;21.35;;;;;;;15.00;48.06;99883.91;4407979;32;34767;-91
2021/04/18 08:44:37;;;;;;;25.85;19.65;;;;;;;15.11;46.35;99878.50;4370574;32;32472;-90
2021/04/18 08:47:06;;;;;;;24.30;19.12;;;;;;;15.20;45.23;99875.72;4407679;32;33772;-90
2021/04/18 08:49:41;;;;;;;25.50;18.98;;;;;;;15.04;43.54;99872.50;4394229;32;33714;-90
2021/04/18 08:52:16;;;;;;;23.60;19.23;;;;;;;14.87;44.19;99880.66;4394110;32;34470;-89
2021/04/18 08:54:47;;;;;;;27.02;19.17;;;;;;;15.09;44.60;99870.69;4394513;32;34238;-89
2021/04/18 08:57:17;;;;;;;21.15;16.65;;;;;;;15.14;44.14;99865.34;4394400;32;34343;-90
2021/04/18 08:59:52;;;;;;;21.37;16.25;;;;;;;15.28;43.10;99869.47;4382012;32;33768;-90
2021/04/18 09:02:22;;;;;;;20.98;16.40;;;;;;;15.04;43.41;99871.63;4406792;32;34530;-89
2021/04/18 09:04:55;;;;;;;20.87;16.23;;;;;;;15.15;43.43;99878.41;4394528;32;33832;-89
2021/04/18 09:07:28;;;;;;;19.08;14.75;;;;;;;15.28;42.85;99879.94;4394412;32;33855;-89
2021/04/18 09:10:00;;;;;;;19.45;14.35;;;;;;;15.19;42.46;99877.47;4393658;32;34510;-89
2021/04/18 09:12:28;;;;;;;14.73;12.40;;;;;;;15.24;40.85;99880.00;4381507;32;34256;-89
2021/04/18 09:14:56;;;;;;;13.60;10.98;;;;;;;15.25;40.75;99876.50;4394098;32;33838;-88
2021/04/18 09:17:27;;;;;;;17.23;13.38;;;;;;;15.31;39.81;99872.00;4381687;32;33224;-89
2021/04/18 09:19:59;;;;;;;13.18;10.02;;;;;;;15.24;40.03;99869.53;4378220;32;33758;-88
2021/04/18 09:22:32;;;;;;;11.93;9.13;;;;;;;15.24;38.88;99870.38;4388156;32;34127;-87
2021/04/18 09:25:09;;;;;;;14.15;10.23;;;;;;;15.04;39.09;99872.50;4366487;32;32672;-90
2021/04/18 09:27:42;;;;;;;11.30;9.27;;;;;;;15.25;38.57;99877.38;4342555;32;32287;-89
2021/04/18 09:30:15;;;;;;;15.85;9.90;;;;;;;15.46;38.02;99866.53;4380002;32;34534;-90
2021/04/18 09:32:59;;;;;;;12.73;9.32;;;;;;;15.40;38.15;99871.84;4370203;32;33551;-90
2021/04/18 09:35:29;;;;;;;10.50;8.70;;;;;;;15.43;38.39;99871.78;4393589;32;33408;-90
2021/04/18 09:38:02;;;;;;;11.25;8.48;;;;;;;15.40;37.32;99877.06;4380866;32;33883;-89
2021/04/18 09:40:34;;;;;;;11.57;8.60;;;;;;;15.37;37.63;99871.91;4368581;32;34231;-90
2021/04/18 09:43:06;;;;;;;12.68;9.30;;;;;;;15.58;37.24;99865.44;4393316;32;33791;-91
2021/04/18 09:45:36;;;;;;;9.48;7.45;;;;;;;15.65;37.13;99866.16;4356681;32;32992;-90
2021/04/18 09:48:14;;;;;;;9.25;7.82;;;;;;;15.58;37.04;99866.28;4381505;32;33204;-89
2021/04/18 09:50:59;;;;;;;12.15;9.30;;;;;;;15.49;37.58;99870.84;4368499;32;33596;-90
2021/04/18 09:53:32;;;;;;;11.90;8.25;;;;;;;15.71;37.04;99872.19;4380668;32;34612;-88
2021/04/18 09:56:04;;;;;;;10.25;8.48;;;;;;;15.97;36.00;99864.63;4368446;32;32221;-89
2021/04/18 09:58:36;;;;;;;11.70;8.30;;;;;;;15.52;37.07;99868.19;4380497;32;34998;-88
2021/04/18 10:01:28;;;;;;;14.55;9.82;;;;;;;15.77;36.61;99863.31;4355971;32;35147;-90
2021/04/18 10:03:58;;;;;;;13.18;10.00;;;;;;;15.64;37.28;99864.44;4367953;32;33671;-89
2021/04/18 10:06:44;;;;;;;10.32;8.23;;;;;;;15.69;36.95;99867.84;4367958;32;35754;-87
2021/04/18 10:09:12;;;;;;;9.35;7.22;;;;;;;15.92;36.73;99863.00;4392403;32;33186;-88
2021/04/18 10:11:41;;;;;;;12.25;8.25;;;;;;;15.80;36.12;99858.00;4381080;32;33949;-89
2021/04/18 10:14:18;;;;;;;9.43;7.20;;;;;;;15.68;36.34;99858.25;4368404;32;33608;-88
2021/04/18 10:16:54;;;;;;;9.82;7.30;;;;;;;15.66;36.71;99854.78;4380391;32;34249;-89
2021/04/18 10:19:24;;;;;;;8.48;6.43;;;;;;;15.42;36.23;99866.59;4368612;32;33740;-90
2021/04/18 10:22:05;;;;;;;10.55;7.12;;;;;;;15.86;35.50;99860.47;4396439;32;33908;-88
2021/04/18 10:24:34;;;;;;;8.60;5.90;;;;;;;15.61;36.75;99861.88;4396082;32;33964;-89
2021/04/18 10:27:21;;;;;;;7.47;5.70;;;;;;;15.70;35.57;99864.31;4395853;32;32818;-89
2021/04/18 10:29:50;;;;;;;8.55;5.95;;;;;;;15.76;35.96;99865.06;4383710;32;33325;-89
2021/04/18 10:32:19;;;;;;;9.35;6.95;;;;;;;15.48;36.02;99861.25;4383825;32;33814;-88
2021/04/18 10:34:49;;;;;;;9.23;6.90;;;;;;;15.75;35.64;99860.72;4383270;32;34818;-88
2021/04/18 10:37:18;;;;;;;9.93;6.70;;;;;;;15.64;35.74;99861.84;4395591;32;35557;-89
2021/04/18 10:39:45;;;;;;;5.95;5.35;;;;;;;15.35;36.37;99857.97;4395335;32;33813;-88
2021/04/18 10:42:13;;;;;;;10.05;5.97;;;;;;;15.62;36.16;99855.75;4382615;32;34941;-88
2021/04/18 10:44:42;;;;;;;8.43;6.55;;;;;;;15.84;35.57;99851.78;4396198;32;35471;-87
2021/04/18 10:47:15;;;;;;;8.80;6.53;;;;;;;15.56;35.99;99854.97;4395518;32;32432;-86
2021/04/18 10:49:45;;;;;;;8.90;6.35;;;;;;;15.87;35.13;99851.72;4396327;32;34103;-87
2021/04/18 10:52:13;;;;;;;10.55;7.15;;;;;;;15.43;36.55;99845.56;4395815;32;33682;-88
2021/04/18 10:54:41;;;;;;;9.73;7.12;;;;;;;15.62;36.34;99856.59;4382763;32;34429;-87
2021/04/18 10:57:08;;;;;;;11.05;6.93;;;;;;;15.85;35.13;99848.28;4383340;32;33624;-89
2021/04/18 10:59:36;;;;;;;7.65;6.43;;;;;;;15.95;35.67;99852.44;4382762;32;33280;-89
2021/04/18 11:02:06;;;;;;;7.28;5.78;;;;;;;15.90;36.00;99854.31;4383567;32;35468;-87
2021/04/18 11:04:35;;;;;;;7.28;5.25;;;;;;;15.82;35.80;99845.72;4383007;32;34887;-88
2021/04/18 11:07:04;;;;;;;7.65;5.50;;;;;;;15.66;35.44;99845.19;4395367;32;34184;-88
2021/04/18 11:09:32;;;;;;;7.57;5.32;;;;;;;15.11;36.40;99853.19;4395676;32;34269;-88
2021/04/18 11:12:00;;;;;;;9.70;4.95;;;;;;;15.26;36.39;99842.41;4382674;32;34099;-87
2021/04/18 11:14:53;;;;;;;6.85;5.18;;;;;;;15.09;36.56;99846.22;4395020;32;33429;-88
2021/04/18 11:17:41;;;;;;;8.30;5.10;;;;;;;14.93;37.09;99850.00;4383801;32;32789;-87
2021/04/18 11:20:11;;;;;;;8.43;5.68;;;;;;;15.00;37.55;99849.84;4394577;32;34705;-88
2021/04/18 11:22:39;;;;;;;4.37;3.53;;;;;;;14.94;37.48;99844.75;4394852;32;34308;-87
2021/04/18 11:25:09;;;;;;;4.80;3.30;;;;;;;14.71;38.15;99852.12;4394402;32;33301;-88
2021/04/18 11:27:39;;;;;;;5.53;3.90;;;;;;;14.26;40.10;99849.25;4394816;32;32944;-87
2021/04/18 11:30:13;;;;;;;5.65;4.15;;;;;;;14.44;39.97;99852.53;4394190;32;34826;-87
2021/04/18 11:32:40;;;;;;;5.57;4.78;;;;;;;14.25;40.92;99858.00;4394554;32;35228;-88
2021/04/18 11:35:09;;;;;;;5.22;3.85;;;;;;;14.33;41.46;99849.22;4381909;32;33583;-87
2021/04/18 11:37:38;;;;;;;6.03;4.47;;;;;;;14.58;40.76;99853.19;4394819;32;33696;-87
2021/04/18 11:40:16;;;;;;;7.28;5.35;;;;;;;14.73;40.24;99855.56;4396127;32;33857;-86
2021/04/18 11:42:45;;;;;;;6.22;4.68;;;;;;;14.68;41.30;99847.78;4394987;32;34085;-86
2021/04/18 11:45:14;;;;;;;7.30;4.37;;;;;;;14.61;41.59;99850.53;4395142;32;34769;-87
2021/04/18 11:47:42;;;;;;;7.20;5.35;;;;;;;14.85;40.88;99847.53;4408075;32;33532;-86
2021/04/18 11:50:11;;;;;;;7.12;5.28;;;;;;;14.24;41.60;99853.66;4395052;32;34093;-89
2021/04/18 11:52:38;;;;;;;8.52;5.65;;;;;;;14.29;41.56;99843.13;4381051;32;34245;-87
2021/04/18 11:55:08;;;;;;;5.87;5.28;;;;;;;14.72;41.10;99844.22;4394668;32;33644;-87
2021/04/18 11:57:35;;;;;;;8.98;5.10;;;;;;;14.91;40.32;99847.41;4394873;32;33888;-87
2021/04/18 12:00:07;;;;;;;6.53;5.12;;;;;;;15.11;40.55;99845.31;4382610;32;33363;-86
2021/04/18 12:02:40;;;;;;;7.25;4.82;;;;;;;14.92;40.94;99851.75;4406867;32;33732;-86
2021/04/18 12:05:13;;;;;;;7.93;5.53;;;;;;;14.99;41.09;99852.50;4395479;32;33430;-86
2021/04/18 12:07:41;;;;;;;6.87;5.05;;;;;;;15.16;40.37;99840.00;4395442;32;34099;-86
2021/04/18 12:10:10;;;;;;;6.85;5.30;;;;;;;15.18;40.25;99844.31;4394658;32;33742;-89
2021/04/18 12:12:40;;;;;;;8.73;5.78;;;;;;;14.90;41.23;99849.16;4382436;32;34841;-85
2021/04/18 12:15:11;;;;;;;7.93;6.55;;;;;;;15.02;40.94;99845.47;4407240;32;33835;-87
2021/04/18 12:17:38;;;;;;;8.35;7.07;;;;;;;14.87;41.35;99841.37;4394026;32;34209;-86
2021/04/18 12:20:09;;;;;;;261.55;236.68;;;;;;;14.99;41.20;99842.91;4394086;32;35103;-86
2021/04/18 12:22:37;;;;;;;63.45;56.95;;;;;;;15.00;44.97;99846.41;4393768;32;34432;-85
2021/04/18 12:25:06;;;;;;;9.60;7.03;;;;;;;15.31;47.02;99840.56;4394342;32;33429;-89